Time;durP1;ratioP1;P1;durP2;ratioP2;P2;SDS_P1;SDS_P2;PMS_P1;PMS_P2;Temp;Humidity;BMP_temperature;BMP_pressure;BME280_temperature;BME280_humidity;BME280_pressure;Samples;Min_cycle;Max_cycle;Signal;HPM_P1;HPM_P2
2024/03/10 00:01:41;;;;;;;;;;;;;;;-0.63;100.00;100180.78;5034078;28;871;-59
2024/03/10 00:04:07;;;;;;;;;;;;;;;-0.59;100.00;100178.25;5016222;28;2324;-60
2024/03/10 00:06:34;;;;;;;;;;;;;;;-0.69;100.00;100177.41;5033974;28;867;-60
2024/03/10 00:09:00;;;;;;;;;;;;;;;-0.94;100.00;100173.56;5034039;28;1941;-60
2024/03/10 00:11:26;;;;;;;;;;;;;;;-1.13;100.00;100179.25;5033968;28;932;-60
2024/03/10 00:13:55;;;;;;;;;;;;;;;-1.13;100.00;100175.72;5033581;28;1168;-59
2024/03/10 00:16:22;;;;;;;;;;;;;;;-0.93;100.00;100182.50;5033898;28;813;-59
2024/03/10 00:18:48;;;;;;;;;;;;;;;-0.80;100.00;100183.47;5033613;28;847;-59
2024/03/10 00:21:15;;;;;;;;;;;;;;;-0.75;100.00;100186.81;5033991;28;892;-59
2024/03/10 00:23:42;;;;;;;;;;;;;;;-0.75;100.00;100186.81;5033147;28;844;-59
2024/03/10 00:26:09;;;;;;;;;;;;;;;-0.80;100.00;100181.56;5033674;28;809;-60
2024/03/10 00:28:36;;;;;;;;;;;;;;;-0.89;100.00;100175.31;5033429;28;1971;-60
2024/03/10 00:31:02;;;;;;;;;;;;;;;-0.92;100.00;100170.50;5033525;28;840;-60
2024/03/10 00:33:29;;;;;;;;;;;;;;;-0.91;100.00;100167.50;5033556;28;857;-59
2024/03/10 00:35:57;;;;;;;;;;;;;;;-0.71;100.00;100163.38;5033334;28;1064;-59
2024/03/10 00:38:24;;;;;;;;;;;;;;;-0.80;100.00;100164.47;5033469;28;911;-59
2024/03/10 00:40:50;;;;;;;;;;;;;;;-1.04;100.00;100155.66;5033225;28;909;-58
2024/03/10 00:43:17;;;;;;;;;;;;;;;-1.19;100.00;100158.81;5033333;28;816;-58
2024/03/10 00:45:44;;;;;;;;;;;;;;;-1.32;100.00;100155.09;5033244;28;828;-58
2024/03/10 00:48:11;;;;;;;;;;;;;;;-1.46;100.00;100160.63;5033025;28;1944;-59
2024/03/10 00:50:40;;;;;;;;;;;;;;;-1.62;100.00;100164.88;5033157;28;848;-59
2024/03/10 00:53:06;;;;;;;;;;;;;;;-1.79;100.00;100153.91;5033132;28;895;-59
2024/03/10 00:55:32;;;;;;;;;;;;;;;-1.79;100.00;100153.91;5033062;28;836;-59
2024/03/10 00:57:59;;;;;;;;;;;;;;;-1.72;100.00;100146.97;5032968;28;808;-58
2024/03/10 01:00:26;;;;;;;;;;;;;;;-1.62;100.00;100150.50;5032955;28;834;-57
2024/03/10 01:02:55;;;;;;;;;;;;;;;-1.54;100.00;100149.75;5032827;28;848;-59
2024/03/10 01:05:21;;;;;;;;;;;;;;;-1.43;100.00;100151.06;5032891;28;852;-59
2024/03/10 01:07:47;;;;;;;;;;;;;;;-1.34;100.00;100142.97;5032766;28;1971;-59
2024/03/10 01:10:14;;;;;;;;;;;;;;;-1.52;100.00;100142.88;5032866;28;888;-58
2024/03/10 01:12:41;;;;;;;;;;;;;;;-1.67;100.00;100137.88;5033061;28;1014;-59
2024/03/10 01:15:08;;;;;;;;;;;;;;;-1.61;100.00;100131.22;5032514;28;1320;-59
2024/03/10 01:17:34;;;;;;;;;;;;;;;-1.55;100.00;100126.47;5032601;28;938;-59
2024/03/10 01:20:00;;;;;;;;;;;;;;;-1.60;100.00;100127.41;5014789;28;1513;-59
2024/03/10 01:22:27;;;;;;;;;;;;;;;-1.62;100.00;100132.34;5032668;28;934;-58
2024/03/10 01:24:54;;;;;;;;;;;;;;;-1.56;100.00;100131.06;5032692;28;889;-59
2024/03/10 01:27:21;;;;;;;;;;;;;;;-1.67;100.00;100125.13;5032505;28;1974;-59
2024/03/10 01:29:47;;;;;;;;;;;;;;;-1.74;100.00;100126.72;5032486;28;891;-58
2024/03/10 01:32:14;;;;;;;;;;;;;;;-1.72;100.00;100132.63;5032878;28;886;-58
2024/03/10 01:34:40;;;;;;;;;;;;;;;-1.67;100.00;100129.75;5031810;28;915;-59
2024/03/10 01:37:07;;;;;;;;;;;;;;;-1.61;100.00;100125.81;5032372;28;1225;-59
2024/03/10 01:39:33;;;;;;;;;;;;;;;-1.44;100.00;100116.94;5032324;28;1321;-58
2024/03/10 01:42:00;;;;;;;;;;;;;;;-1.50;100.00;100108.13;5032107;28;858;-58
2024/03/10 01:44:28;;;;;;;;;;;;;;;-1.65;100.00;100120.19;5032220;28;851;-58
2024/03/10 01:46:55;;;;;;;;;;;;;;;-1.75;100.00;100125.09;5032182;28;994;-58
2024/03/10 01:49:22;;;;;;;;;;;;;;;-1.77;100.00;100122.72;5032085;28;1878;-59
2024/03/10 01:51:48;;;;;;;;;;;;;;;-1.90;100.00;100119.00;5032216;28;1233;-58
2024/03/10 01:54:16;;;;;;;;;;;;;;;-1.98;100.00;100119.75;5032054;28;895;-59
2024/03/10 01:56:43;;;;;;;;;;;;;;;-2.15;100.00;100123.13;5032262;28;1297;-58
2024/03/10 01:59:12;;;;;;;;;;;;;;;-2.26;100.00;100124.50;5031924;28;1322;-59
2024/03/10 02:01:39;;;;;;;;;;;;;;;-2.47;100.00;100121.50;5032040;28;851;-59
2024/03/10 02:04:09;;;;;;;;;;;;;;;-2.63;100.00;100121.03;5032000;28;883;-59
2024/03/10 02:06:37;;;;;;;;;;;;;;;-2.60;100.00;100120.44;5031938;28;840;-60
2024/03/10 02:09:04;;;;;;;;;;;;;;;-2.61;100.00;100128.84;5031786;28;1926;-59
2024/03/10 02:11:30;;;;;;;;;;;;;;;-2.49;100.00;100126.41;5032095;28;967;-59
2024/03/10 02:13:58;;;;;;;;;;;;;;;-2.33;100.00;100126.84;5031437;28;1234;-58
2024/03/10 02:16:24;;;;;;;;;;;;;;;-2.13;100.00;100134.47;5031810;28;829;-58
2024/03/10 02:18:54;;;;;;;;;;;;;;;-2.21;100.00;100127.09;5031616;28;871;-58
2024/03/10 02:21:25;;;;;;;;;;;;;;;-2.28;100.00;100124.03;5032010;28;824;-58
2024/03/10 02:24:01;;;;;;;;;;;;;;;-2.24;100.00;100121.47;5013857;28;1284;-58
2024/03/10 02:26:38;;;;;;;;;;;;;;;-2.24;100.00;100122.28;5032016;28;1203;-58
2024/03/10 02:29:15;;;;;;;;;;;;;;;-2.19;100.00;100118.66;5031565;28;1906;-59
2024/03/10 02:48:20;;;;;;;;;;;;;;;-2.64;100.00;100138.41;5035606;28;1886;-58
2024/03/10 02:50:49;;;;;;;;;;;;;;;-2.63;100.00;100139.19;5035391;28;899;-59
2024/03/10 02:53:15;;;;;;;;;;;;;;;-2.60;100.00;100136.69;5035389;28;1035;-59
2024/03/10 02:55:42;;;;;;;;;;;;;;;-2.51;100.00;100132.13;5035211;28;903;-59
2024/03/10 02:58:08;;;;;;;;;;;;;;;-2.39;100.00;100128.06;5035298;28;844;-59
2024/03/10 03:00:35;;;;;;;;;;;;;;;-2.32;100.00;100125.75;5035371;28;880;-58
2024/03/10 03:03:03;;;;;;;;;;;;;;;-2.35;100.00;100131.75;5035351;28;946;-58
2024/03/10 03:05:30;;;;;;;;;;;;;;;-2.36;100.00;100124.75;5035208;28;847;-58
2024/03/10 03:07:57;;;;;;;;;;;;;;;-2.34;100.00;100134.16;5034979;28;1886;-58
2024/03/10 03:10:24;;;;;;;;;;;;;;;-2.35;100.00;100129.03;5035069;28;883;-58
2024/03/10 03:12:52;;;;;;;;;;;;;;;-2.43;100.00;100127.91;5034966;28;1329;-60
2024/03/10 03:15:18;;;;;;;;;;;;;;;-2.45;100.00;100121.97;5034975;28;847;-59
2024/03/10 03:17:48;;;;;;;;;;;;;;;-2.43;100.00;100127.06;5017123;28;1318;-58
2024/03/10 03:20:17;;;;;;;;;;;;;;;-2.42;100.00;100125.97;5034821;28;863;-60
2024/03/10 03:22:44;;;;;;;;;;;;;;;-2.37;100.00;100132.09;5034810;28;927;-59
2024/03/10 03:25:14;;;;;;;;;;;;;;;-2.45;100.00;100130.09;5034760;28;868;-59
2024/03/10 03:27:43;;;;;;;;;;;;;;;-2.56;100.00;100134.97;5034627;28;1973;-59
2024/03/10 03:30:10;;;;;;;;;;;;;;;-2.67;100.00;100129.00;5034746;28;1197;-59
2024/03/10 03:32:37;;;;;;;;;;;;;;;-2.88;100.00;100130.53;5034672;28;899;-58
2024/03/10 03:35:04;;;;;;;;;;;;;;;-3.09;100.00;100130.97;5035027;28;793;-58
2024/03/10 03:37:30;;;;;;;;;;;;;;;-3.24;100.00;100127.78;5034679;28;892;-59
2024/03/10 03:39:57;;;;;;;;;;;;;;;-3.27;100.00;100121.06;5034459;28;816;-59
2024/03/10 03:42:23;;;;;;;;;;;;;;;-3.27;100.00;100121.06;5034458;28;871;-59
2024/03/10 03:44:50;;;;;;;;;;;;;;;-3.26;100.00;100124.56;5034422;28;895;-58
2024/03/10 03:47:17;;;;;;;;;;;;;;;-3.25;100.00;100128.91;5034156;28;1878;-59
2024/03/10 03:49:47;;;;;;;;;;;;;;;-3.18;100.00;100124.69;5034341;28;860;-60
2024/03/10 03:52:13;;;;;;;;;;;;;;;-3.15;100.00;100126.00;5034611;28;776;-59
2024/03/10 03:54:41;;;;;;;;;;;;;;;-3.20;100.00;100117.97;5034516;28;840;-60
2024/03/10 03:57:08;;;;;;;;;;;;;;;-3.29;100.00;100120.56;5034383;28;879;-58
2024/03/10 03:59:35;;;;;;;;;;;;;;;-3.29;100.00;100123.28;5033426;28;922;-59
2024/03/10 04:02:01;;;;;;;;;;;;;;;-3.24;100.00;100127.78;5034333;28;856;-59
2024/03/10 04:04:28;;;;;;;;;;;;;;;-3.25;100.00;100126.97;5034164;28;1311;-59
2024/03/10 04:06:55;;;;;;;;;;;;;;;-3.26;100.00;100125.41;5033859;28;832;-58
2024/03/10 04:09:22;;;;;;;;;;;;;;;-3.26;100.00;100121.88;5016106;28;1923;-59
2024/03/10 04:11:49;;;;;;;;;;;;;;;-3.28;100.00;100119.50;5033792;28;1034;-60
2024/03/10 04:14:16;;;;;;;;;;;;;;;-3.25;100.00;100121.56;5033819;28;1237;-60
2024/03/10 04:16:45;;;;;;;;;;;;;;;-3.36;100.00;100122.91;5033824;28;1284;-59
2024/03/10 04:19:12;;;;;;;;;;;;;;;-3.58;100.00;100086.56;5034076;28;828;-59
2024/03/10 04:21:39;;;;;;;;;;;;;;;-3.37;100.00;100130.22;5033729;28;837;-60
2024/03/10 04:24:07;;;;;;;;;;;;;;;-3.35;100.00;100128.00;5033867;28;836;-60
2024/03/10 04:26:34;;;;;;;;;;;;;;;-3.49;100.00;100124.50;5033551;28;843;-60
2024/03/10 04:29:00;;;;;;;;;;;;;;;-3.64;100.00;100116.69;5033534;28;2001;-59
2024/03/10 04:31:28;;;;;;;;;;;;;;;-3.49;100.00;100117.19;5033819;28;891;-58
2024/03/10 04:33:56;;;;;;;;;;;;;;;-3.40;100.00;100117.28;5033409;28;840;-58
2024/03/10 04:36:22;;;;;;;;;;;;;;;-3.44;100.00;100118.19;5033533;28;879;-58
2024/03/10 04:38:49;;;;;;;;;;;;;;;-3.43;100.00;100112.50;5033266;28;860;-60
2024/03/10 04:41:16;;;;;;;;;;;;;;;-3.13;100.00;100116.47;5033436;28;824;-59
2024/03/10 04:43:42;;;;;;;;;;;;;;;-2.88;100.00;100125.94;5033433;28;890;-59
2024/03/10 04:46:08;;;;;;;;;;;;;;;-2.70;100.00;100129.59;5033437;28;907;-59
2024/03/10 04:48:36;;;;;;;;;;;;;;;-2.54;100.00;100131.94;5033501;28;1894;-58
2024/03/10 04:51:03;;;;;;;;;;;;;;;-2.49;100.00;100135.31;5033317;28;884;-58
2024/03/10 04:53:32;;;;;;;;;;;;;;;-2.42;100.00;100139.50;5033366;28;973;-58
2024/03/10 04:55:59;;;;;;;;;;;;;;;-2.38;100.00;100140.50;5033063;28;887;-58
2024/03/10 04:58:26;;;;;;;;;;;;;;;-2.32;100.00;100142.00;5033023;28;1033;-59
2024/03/10 05:00:53;;;;;;;;;;;;;;;-2.26;100.00;100149.69;5032882;28;867;-59
2024/03/10 05:03:20;;;;;;;;;;;;;;;-2.14;100.00;100153.72;5033020;28;852;-58
2024/03/10 05:05:46;;;;;;;;;;;;;;;-1.96;100.00;100146.50;5032777;28;1066;-58
2024/03/10 05:08:15;;;;;;;;;;;;;;;-1.68;100.00;100141.72;5032792;28;1886;-58
2024/03/10 05:10:42;;;;;;;;;;;;;;;-1.40;100.00;100139.59;5032661;28;836;-58
2024/03/10 05:13:09;;;;;;;;;;;;;;;-1.16;100.00;100144.59;5032307;28;1290;-58
2024/03/10 05:15:36;;;;;;;;;;;;;;;-1.10;100.00;100142.56;5014920;28;1266;-58
2024/03/10 05:18:03;;;;;;;;;;;;;;;-0.99;100.00;100145.78;5032716;28;871;-58
2024/03/10 05:20:29;;;;;;;;;;;;;;;-0.82;100.00;100149.31;5032594;28;883;-59
2024/03/10 05:22:55;;;;;;;;;;;;;;;-0.61;100.00;100156.84;5032557;28;824;-58
2024/03/10 05:25:22;;;;;;;;;;;;;;;-0.27;100.00;100152.53;5032729;28;907;-58
2024/03/10 05:27:51;;;;;;;;;;;;;;;0.18;100.00;100155.63;5032301;28;1918;-58
2024/03/10 05:30:17;;;;;;;;;;;;;;;0.61;100.00;100148.44;5032358;28;940;-58
2024/03/10 05:32:44;;;;;;;;;;;;;;;1.02;100.00;100166.81;5032390;28;955;-58
2024/03/10 05:35:10;;;;;;;;;;;;;;;1.64;100.00;100156.25;5032232;28;892;-59
2024/03/10 05:37:37;;;;;;;;;;;;;;;1.78;100.00;100154.06;5032314;28;898;-58
2024/03/10 05:40:06;;;;;;;;;;;;;;;1.65;100.00;100159.81;5032212;28;922;-58
2024/03/10 05:42:33;;;;;;;;;;;;;;;1.57;100.00;100156.81;5014683;28;1205;-59
2024/03/10 05:45:04;;;;;;;;;;;;;;;1.56;100.00;100162.59;5032490;28;840;-59
2024/03/10 05:47:30;;;;;;;;;;;;;;;1.58;100.00;100161.13;5031996;28;1890;-58
2024/03/10 05:49:56;;;;;;;;;;;;;;;1.63;100.00;100160.13;5032115;28;918;-59
2024/03/10 05:52:24;;;;;;;;;;;;;;;1.60;100.00;100156.16;5032140;28;809;-58
2024/03/10 05:54:50;;;;;;;;;;;;;;;1.68;100.00;100157.19;5031929;28;951;-59
2024/03/10 05:57:17;;;;;;;;;;;;;;;1.78;100.00;100153.28;5030774;28;1245;-58
2024/03/10 05:59:43;;;;;;;;;;;;;;;1.95;100.00;100155.03;5031894;28;886;-58
2024/03/10 06:02:13;;;;;;;;;;;;;;;2.11;100.00;100158.72;5032009;28;852;-59
2024/03/10 06:04:40;;;;;;;;;;;;;;;2.25;100.00;100161.16;5031860;28;832;-59
2024/03/10 06:07:07;;;;;;;;;;;;;;;2.15;100.00;100169.75;5031727;28;861;-59
2024/03/10 06:09:36;;;;;;;;;;;;;;;1.92;100.00;100164.69;5031844;28;1953;-59
2024/03/10 06:12:03;;;;;;;;;;;;;;;1.78;100.00;100162.25;5032140;28;937;-58
2024/03/10 06:26:22;;;;;;;;;;;;;;;2.82;100.00;100162.25;4952035;29;954;-59
2024/03/10 06:28:49;;;;;;;;;;;;;;;3.12;100.00;100162.00;4951363;29;1918;-59
2024/03/10 06:31:19;;;;;;;;;;;;;;;3.50;100.00;100169.78;4951688;29;862;-59
2024/03/10 06:36:48;;;;;;;;;;;;;;;4.23;100.00;100167.91;4951296;28;842;-59
2024/03/10 06:39:19;;;;;;;;;;;;;;;4.43;100.00;100168.78;4951376;28;1238;-59
2024/03/10 06:41:46;;;;;;;;;;;;;;;4.59;100.00;100179.78;4951272;29;1285;-59
2024/03/10 06:44:17;;;;;;;;;;;;;;;4.85;100.00;100185.50;4951489;29;872;-59
2024/03/10 06:46:43;;;;;;;;;;;;;;;5.13;100.00;100179.09;4951520;29;860;-59
2024/03/10 06:49:10;;;;;;;;;;;;;;;5.27;100.00;100181.38;4951434;29;1894;-59
2024/03/10 06:51:36;;;;;;;;;;;;;;;5.55;100.00;100183.13;4951412;29;854;-59
2024/03/10 06:54:03;;;;;;;;;;;;;;;5.81;100.00;100185.28;4965484;28;901;-59
2024/03/10 06:56:30;;;;;;;;;;;;;;;5.84;100.00;100190.81;5031391;28;863;-59
2024/03/10 06:58:57;;;;;;;;;;;;;;;5.92;100.00;100183.53;5031271;28;962;-59
2024/03/10 07:01:23;;;;;;;;;;;;;;;5.91;100.00;100185.50;5013614;28;1265;-59
2024/03/10 07:03:49;;;;;;;;;;;;;;;5.80;100.00;100180.94;5031336;28;824;-59
2024/03/10 07:06:19;;;;;;;;;;;;;;;5.75;100.00;100178.47;5031298;28;878;-59
2024/03/10 07:08:46;;;;;;;;;;;;;;;5.77;100.00;100173.44;5031145;28;1894;-59
2024/03/10 07:11:12;;;;;;;;;;;;;;;5.80;100.00;100180.94;5031398;28;1047;-59
2024/03/10 07:13:38;;;;;;;;;;;;;;;5.83;100.00;100177.47;5030947;28;1431;-59
2024/03/10 07:16:06;;;;;;;;;;;;;;;5.94;100.00;100181.22;5031229;28;834;-59
2024/03/10 07:18:32;;;;;;;;;;;;;;;6.04;100.00;100185.34;5031105;28;880;-60
2024/03/10 07:20:59;;;;;;;;;;;;;;;6.17;100.00;100188.75;5031148;28;914;-59
2024/03/10 07:23:26;;;;;;;;;;;;;;;6.43;100.00;100182.56;5031172;28;904;-59
2024/03/10 07:25:53;;;;;;;;;;;;;;;6.58;100.00;100189.09;5031240;28;872;-60
2024/03/10 07:28:20;;;;;;;;;;;;;;;6.70;100.00;100180.66;5031017;28;1913;-59
2024/03/10 07:30:46;;;;;;;;;;;;;;;6.80;100.00;100187.50;5030920;28;867;-59
2024/03/10 07:33:13;;;;;;;;;;;;;;;6.97;100.00;100183.47;5031679;28;840;-59
2024/03/10 07:35:39;;;;;;;;;;;;;;;7.03;100.00;100188.28;5034777;28;899;-60
2024/03/10 07:38:06;;;;;;;;;;;;;;;7.12;100.00;100190.75;5034517;28;888;-60
2024/03/10 07:40:33;;;;;;;;;;;;;;;7.30;100.00;100183.56;5034527;28;836;-59
2024/03/10 07:42:59;;;;;;;;;;;;;;;7.54;100.00;100196.09;5034422;28;863;-60
2024/03/10 07:45:25;;;;;;;;;;;;;;;8.02;100.00;100194.72;5034436;28;848;-60
2024/03/10 07:47:52;;;;;;;;;;;;;;;8.34;100.00;100193.13;5034278;28;1890;-60
2024/03/10 07:50:18;;;;;;;;;;;;;;;8.41;100.00;100197.13;5034536;28;863;-59
2024/03/10 07:52:46;;;;;;;;;;;;;;;8.66;100.00;100200.91;5034263;28;848;-59
2024/03/10 07:55:13;;;;;;;;;;;;;;;8.98;100.00;100194.88;5034348;28;855;-58
2024/03/10 07:57:39;;;;;;;;;;;;;;;8.98;100.00;100192.94;5034207;28;891;-59
2024/03/10 08:00:22;;;;;;;;;;;;;;;8.97;100.00;100196.06;5034149;28;878;-59
2024/03/10 08:02:48;;;;;;;;;;;;;;;8.94;100.00;100194.06;5034075;28;945;-59
2024/03/10 08:05:15;;;;;;;;;;;;;;;8.75;100.00;100189.59;5034055;28;821;-59
2024/03/10 08:07:42;;;;;;;;;;;;;;;8.72;100.00;100182.84;5033823;28;1914;-59
2024/03/10 08:10:12;;;;;;;;;;;;;;;8.81;100.00;100184.50;5016256;28;936;-59
2024/03/10 08:12:40;;;;;;;;;;;;;;;8.75;100.00;100187.63;5034512;28;1072;-59
2024/03/10 08:15:09;;;;;;;;;;;;;;;8.92;100.00;100185.41;5033659;28;1505;-59
2024/03/10 08:17:36;;;;;;;;;;;;;;;9.31;100.00;100182.13;5033863;28;844;-59
2024/03/10 08:20:06;;;;;;;;;;;;;;;9.38;100.00;100191.22;5033654;28;946;-59
2024/03/10 08:22:36;;;;;;;;;;;;;;;9.42;100.00;100188.50;5033751;28;805;-59
2024/03/10 08:25:03;;;;;;;;;;;;;;;9.52;100.00;100176.72;5033617;28;883;-59
2024/03/10 08:27:29;;;;;;;;;;;;;;;9.86;100.00;100164.63;5033625;28;1909;-59
2024/03/10 08:29:56;;;;;;;;;;;;;;;10.10;100.00;100180.50;5033561;28;870;-59
2024/03/10 08:32:23;;;;;;;;;;;;;;;10.46;100.00;100171.56;5033497;28;907;-59
2024/03/10 08:34:56;;;;;;;;;;;;;;;10.90;100.00;100184.19;5033565;28;868;-59
2024/03/10 08:37:23;;;;;;;;;;;;;;;11.30;100.00;100173.91;5033382;28;887;-59
2024/03/10 08:39:50;;;;;;;;;;;;;;;11.71;100.00;100181.69;5033781;28;843;-59
2024/03/10 08:42:16;;;;;;;;;;;;;;;12.20;100.00;100177.94;5033365;28;919;-59
2024/03/10 08:44:43;;;;;;;;;;;;;;;12.63;100.00;100176.88;5032974;28;840;-59
2024/03/10 08:47:10;;;;;;;;;;;;;;;12.57;100.00;100172.97;5033219;28;862;-59
2024/03/10 08:49:38;;;;;;;;;;;;;;;12.70;100.00;100167.72;5033073;28;1886;-58
2024/03/10 08:52:08;;;;;;;;;;;;;;;12.22;100.00;100166.44;5032960;28;915;-58
2024/03/10 08:54:37;;;;;;;;;;;;;;;11.50;100.00;100160.41;5033390;28;788;-59
2024/03/10 08:57:09;;;;;;;;;;;;;;;11.50;100.00;100172.28;5033109;28;1227;-58
2024/03/10 08:59:35;;;;;;;;;;;;;;;11.41;100.00;100169.94;5032904;28;952;-58
2024/03/10 09:02:02;;;;;;;;;;;;;;;10.88;100.00;100170.78;5015566;28;991;-59
2024/03/10 09:04:28;;;;;;;;;;;;;;;10.86;100.00;100164.88;5032888;28;828;-58
2024/03/10 09:06:55;;;;;;;;;;;;;;;11.00;100.00;100164.06;5015166;28;894;-58
2024/03/10 09:09:22;;;;;;;;;;;;;;;11.65;100.00;100168.28;5032628;28;1898;-58
2024/03/10 09:11:49;;;;;;;;;;;;;;;12.74;100.00;100174.00;5032941;28;1019;-59
2024/03/10 09:14:15;;;;;;;;;;;;;;;12.87;100.00;100177.88;5032547;28;1557;-59
2024/03/10 09:16:44;;;;;;;;;;;;;;;12.70;100.00;100174.06;5032808;28;883;-58
2024/03/10 09:19:11;;;;;;;;;;;;;;;12.36;100.00;100165.59;5032650;28;968;-58
2024/03/10 09:21:37;;;;;;;;;;;;;;;12.26;100.00;100158.91;5032572;28;913;-58
2024/03/10 09:24:04;;;;;;;;;;;;;;;12.00;100.00;100163.78;5032585;28;934;-58
2024/03/10 09:26:30;;;;;;;;;;;;;;;11.72;100.00;100163.91;5032545;28;864;-59
2024/03/10 09:28:57;;;;;;;;;;;;;;;11.72;100.00;100166.66;5032678;28;1979;-58
2024/03/10 09:31:24;;;;;;;;;;;;;;;11.12;100.00;100160.88;5032317;28;945;-58
2024/03/10 09:33:52;;;;;;;;;;;;;;;11.01;100.00;100162.88;5032560;28;864;-58
2024/03/10 09:36:20;;;;;;;;;;;;;;;11.37;100.00;100165.56;5032547;28;844;-58
2024/03/10 09:38:47;;;;;;;;;;;;;;;11.79;100.00;100169.41;5032416;28;891;-58
2024/03/10 09:41:13;;;;;;;;;;;;;;;11.83;100.00;100157.13;5032315;28;805;-58
2024/03/10 10:12:31;;;;;;;;;;;;;;;12.76;100.00;100122.50;6073143;22;1607;-57
2024/03/10 10:14:58;;;;;;;;;;;;;;;13.18;93.35;100116.94;5011966;28;879;-55
2024/03/10 10:17:25;;;;;;;;;;;;;;;13.31;91.61;100115.22;5027276;28;885;-57
2024/03/10 10:19:51;;;;;;;;;;;;;;;13.02;93.53;100114.72;5011909;28;856;-56
2024/03/10 10:22:20;;;;;;;;;;;;;;;13.03;95.07;100116.28;5011948;28;847;-57
2024/03/10 10:25:03;;;;;;;;;;;;;;;12.98;96.96;100108.44;5012022;28;832;-55
2024/03/10 10:27:47;;;;;;;;;;;;;;;12.50;95.83;100106.47;5011911;28;1977;-54
2024/03/10 10:30:18;;;;;;;;;;;;;;;12.15;100.00;100102.78;5011836;28;848;-54
2024/03/10 10:32:45;;;;;;;;;;;;;;;12.08;100.00;100089.75;5011846;28;1403;-52
2024/03/10 10:35:11;;;;;;;;;;;;;;;12.21;99.39;100095.59;5011761;28;880;-53
2024/03/10 10:37:37;;;;;;;;;;;;;;;12.38;100.00;100080.81;5011898;28;825;-50
2024/03/10 10:40:11;;;;;;;;;;;;;;;12.36;98.54;100079.66;5011956;28;855;-50
2024/03/10 10:42:40;;;;;;;;;;;;;;;12.66;100.00;100079.78;5011680;28;895;-50
2024/03/10 10:45:10;;;;;;;;;;;;;;;12.91;93.43;100081.56;5011677;28;843;-54
2024/03/10 10:47:38;;;;;;;;;;;;;;;12.91;92.66;100080.75;5011696;28;1957;-52
2024/03/10 10:50:14;;;;;;;;;;;;;;;12.90;92.22;100077.19;5011590;28;864;-54
2024/03/10 10:52:42;;;;;;;;;;;;;;;12.93;93.25;100078.34;5011668;28;942;-54
2024/03/10 10:55:10;;;;;;;;;;;;;;;12.91;91.49;100072.41;5011617;28;844;-50
2024/03/10 10:57:39;;;;;;;;;;;;;;;12.78;91.93;100063.81;5012314;28;868;-52
2024/03/10 11:00:18;;;;;;;;;;;;;;;12.67;92.23;100061.16;5011515;28;880;-53
2024/03/10 11:02:44;;;;;;;;;;;;;;;12.78;93.71;100056.31;5011625;28;831;-51
2024/03/10 11:05:11;;;;;;;;;;;;;;;12.65;92.31;100053.28;5011598;28;883;-50
2024/03/10 11:07:42;;;;;;;;;;;;;;;12.67;92.79;100055.59;5012559;28;1890;-48
2024/03/10 11:10:32;;;;;;;;;;;;;;;12.65;92.91;100058.00;5015267;28;959;-54
2024/03/10 11:13:07;;;;;;;;;;;;;;;12.63;92.29;100061.22;5013706;28;1796;-53
2024/03/10 11:15:36;;;;;;;;;;;;;;;12.76;91.17;100052.34;5054949;28;832;-51
2024/03/10 11:18:21;;;;;;;;;;;;;;;12.86;90.79;100057.00;5055091;28;954;-51
2024/03/10 11:20:48;;;;;;;;;;;;;;;12.99;90.92;100051.72;5055132;28;894;-52
2024/03/10 11:23:21;;;;;;;;;;;;;;;13.12;91.08;100058.34;5054626;28;939;-51
2024/03/10 11:25:51;;;;;;;;;;;;;;;13.36;89.07;100045.38;5054657;28;915;-49
2024/03/10 11:28:26;;;;;;;;;;;;;;;13.69;87.47;100040.19;5054419;28;1910;-51
2024/03/10 11:30:56;;;;;;;;;;;;;;;13.56;84.28;100026.09;5054630;28;911;-53
2024/03/10 11:33:23;;;;;;;;;;;;;;;13.05;86.09;100034.22;5054629;28;894;-52
2024/03/10 11:35:53;;;;;;;;;;;;;;;12.93;90.58;100028.41;5054528;28;864;-50
2024/03/10 11:38:20;;;;;;;;;;;;;;;13.22;91.81;100028.88;5054533;28;828;-55
2024/03/10 11:40:55;;;;;;;;;;;;;;;13.80;88.51;100013.03;5054353;28;868;-52
2024/03/10 11:43:22;;;;;;;;;;;;;;;14.21;82.73;100006.47;5036610;28;876;-52
2024/03/10 11:45:51;;;;;;;;;;;;;;;14.17;80.71;100010.53;5054267;28;820;-51
2024/03/10 11:48:18;;;;;;;;;;;;;;;14.38;81.66;100012.13;5054167;28;1882;-52
2024/03/10 11:50:45;;;;;;;;;;;;;;;14.54;76.89;100000.34;5054056;28;942;-55
2024/03/10 11:53:12;;;;;;;;;;;;;;;15.41;76.04;99997.47;5036350;28;966;-56
2024/03/10 11:55:41;;;;;;;;;;;;;;;16.42;72.33;99993.91;5054028;28;943;-56
2024/03/10 11:58:09;;;;;;;;;;;;;;;16.61;64.76;99985.88;5054026;28;938;-58
2024/03/10 12:00:37;;;;;;;;;;;;;;;15.84;63.35;99997.31;5054025;28;1290;-56
2024/03/10 12:03:05;;;;;;;;;;;;;;;14.81;68.78;99984.38;5054127;28;907;-50
2024/03/10 12:05:31;;;;;;;;;;;;;;;14.92;73.51;99988.94;5054194;28;856;-50
2024/03/10 12:07:59;;;;;;;;;;;;;;;15.62;67.22;99982.28;5054117;28;1886;-55
2024/03/10 12:10:27;;;;;;;;;;;;;;;15.70;64.70;99992.03;5054036;28;859;-54
2024/03/10 12:12:53;;;;;;;;;;;;;;;14.79;65.66;99986.78;5053766;28;1114;-53
2024/03/10 12:15:21;;;;;;;;;;;;;;;14.43;68.30;99984.63;5054335;28;939;-50
2024/03/10 12:17:53;;;;;;;;;;;;;;;14.55;72.00;99972.16;5053672;28;930;-52
2024/03/10 12:20:22;;;;;;;;;;;;;;;14.29;71.58;99982.91;5052916;28;849;-49
2024/03/10 12:22:49;;;;;;;;;;;;;;;14.20;72.37;99979.09;5053703;28;863;-49
2024/03/10 12:25:15;;;;;;;;;;;;;;;14.79;71.68;99981.22;5053655;28;835;-51
2024/03/10 12:27:41;;;;;;;;;;;;;;;14.57;72.69;99985.63;5053501;28;1966;-54
2024/03/10 12:30:11;;;;;;;;;;;;;;;14.46;74.78;99985.78;5053802;28;833;-51
2024/03/10 12:32:44;;;;;;;;;;;;;;;15.27;70.46;99981.84;5053595;28;883;-50
2024/03/10 12:35:10;;;;;;;;;;;;;;;16.08;66.64;99989.56;5053238;28;871;-50
2024/03/10 12:37:43;;;;;;;;;;;;;;;15.75;64.52;99983.22;5053467;28;812;-50
2024/03/10 12:40:14;;;;;;;;;;;;;;;15.17;65.60;99980.88;5053733;28;796;-49
2024/03/10 12:42:46;;;;;;;;;;;;;;;15.09;67.36;99983.00;5053198;28;947;-51
2024/03/10 12:45:15;;;;;;;;;;;;;;;14.48;69.34;99972.22;5053154;28;883;-49
2024/03/10 12:47:45;;;;;;;;;;;;;;;14.27;72.72;99976.97;5052971;28;1949;-49
2024/03/10 12:50:13;;;;;;;;;;;;;;;15.24;71.79;99971.59;5053207;28;839;-52
2024/03/10 12:52:40;;;;;;;;;;;;;;;16.05;64.01;99972.94;5052974;28;950;-51
2024/03/10 12:55:07;;;;;;;;;;;;;;;15.50;66.53;99964.25;5053085;28;832;-50
2024/03/10 12:57:39;;;;;;;;;;;;;;;15.13;69.13;99968.22;5052806;28;863;-51
2024/03/10 13:00:16;;;;;;;;;;;;;;;14.74;69.47;99965.00;5052942;28;868;-50
2024/03/10 13:02:42;;;;;;;;;;;;;;;14.19;71.39;99961.63;5052781;28;938;-50
2024/03/10 13:05:12;;;;;;;;;;;;;;;13.93;74.07;99973.56;5052735;28;953;-51
2024/03/10 13:07:39;;;;;;;;;;;;;;;14.00;77.10;99971.47;5052619;28;1902;-48
2024/03/10 13:10:07;;;;;;;;;;;;;;;14.32;78.14;99970.16;5052830;28;910;-49
2024/03/10 13:12:34;;;;;;;;;;;;;;;14.00;76.66;99967.91;5052586;28;1410;-49
2024/03/10 13:15:00;;;;;;;;;;;;;;;13.60;75.97;99979.63;5052662;28;1010;-49
2024/03/10 13:17:27;;;;;;;;;;;;;;;13.34;77.81;99974.84;5052575;28;1371;-47
2024/03/10 13:19:53;;;;;;;;;;;;;;;13.21;80.50;99967.03;5052522;28;927;-49
2024/03/10 13:22:21;;;;;;;;;;;;;;;13.20;82.43;99959.91;5052324;28;977;-48
2024/03/10 13:24:49;;;;;;;;;;;;;;;13.26;82.74;99949.91;5052418;28;922;-47
2024/03/10 13:27:15;;;;;;;;;;;;;;;13.46;81.32;99946.50;5052241;28;946;-48
2024/03/10 13:29:42;;;;;;;;;;;;;;;13.72;81.95;99944.13;5052373;28;1910;-49
2024/03/10 13:32:09;;;;;;;;;;;;;;;13.86;80.37;99941.13;5052196;28;862;-49
2024/03/10 13:34:36;;;;;;;;;;;;;;;13.96;78.60;99933.84;5052356;28;808;-50
2024/03/10 13:37:05;;;;;;;;;;;;;;;14.03;76.58;99940.03;5052103;28;1213;-50
2024/03/10 13:39:31;;;;;;;;;;;;;;;13.95;79.24;99935.81;5052145;28;1142;-49
2024/03/10 13:41:58;;;;;;;;;;;;;;;13.73;78.66;99934.59;5052233;28;911;-50
2024/03/10 13:44:25;;;;;;;;;;;;;;;13.41;81.30;99936.66;5052082;28;840;-48
2024/03/10 13:46:51;;;;;;;;;;;;;;;13.18;82.59;99934.53;5051986;28;938;-50
2024/03/10 13:49:18;;;;;;;;;;;;;;;13.04;83.14;99924.44;5051983;28;1949;-48
2024/03/10 13:51:46;;;;;;;;;;;;;;;13.03;84.32;99928.41;5051941;28;958;-54
2024/03/10 13:54:12;;;;;;;;;;;;;;;13.06;84.28;99919.25;5033965;28;2333;-48